VTK601 YMML-NZAA
Flight info
| Callsign | VTK601 |
|---|---|
| Flight time | 3h 0m |
| Altitude | 35000 |
| Route | CORRS Y81 GEMAC N759 SASRO/N0473F370 N759 PEBLU |
| Aircraft | MD11/H-SDE1E2E3FGHIJ2J3J4J5M1RWXY/LB1D1 |
Departure
| Time | 2026-05-07 11:49 |
|---|---|
| Airport | Melbourne Airport (YMML) |
Arrival
| Time | 2026-05-07 14:49 |
|---|---|
| Airport | Auckland International Airport (NZAA) |
| Time | Latitude | Longitude | Altitude | Speed | Heading |
|---|---|---|---|---|---|
| 2026-05-07 11:42 | -37.66582 | 144.84587 | 410 ft | 0 kts | 352° |
| 2026-05-07 11:43 | -37.66601 | 144.84591 | 406 ft | 4 kts | 352° |
| 2026-05-07 11:43 | -37.66629 | 144.84595 | 404 ft | 4 kts | 13° |
| 2026-05-07 11:43 | -37.66653 | 144.84580 | 405 ft | 4 kts | 65° |
| 2026-05-07 11:44 | -37.66656 | 144.84567 | 407 ft | 0 kts | 88° |
| 2026-05-07 11:45 | -37.66656 | 144.84568 | 407 ft | 1 kts | 88° |
| 2026-05-07 11:45 | -37.66651 | 144.84623 | 408 ft | 12 kts | 83° |
| 2026-05-07 11:45 | -37.66634 | 144.84725 | 409 ft | 11 kts | 65° |
| 2026-05-07 11:45 | -37.66589 | 144.84782 | 410 ft | 8 kts | 29° |
| 2026-05-07 11:46 | -37.66544 | 144.84790 | 413 ft | 7 kts | 354° |
| 2026-05-07 11:46 | -37.66496 | 144.84788 | 412 ft | 3 kts | 17° |
| 2026-05-07 11:46 | -37.66479 | 144.84823 | 407 ft | 13 kts | 67° |
| 2026-05-07 11:46 | -37.66427 | 144.84942 | 412 ft | 12 kts | 32° |
| 2026-05-07 11:47 | -37.66384 | 144.84940 | 411 ft | 6 kts | 336° |
| 2026-05-07 11:47 | -37.66364 | 144.84924 | 419 ft | 0 kts | 324° |
| 2026-05-07 11:48 | -37.66360 | 144.84920 | 419 ft | 4 kts | 324° |
| 2026-05-07 11:48 | -37.66309 | 144.84871 | 420 ft | 12 kts | 322° |
| 2026-05-07 11:48 | -37.66243 | 144.84803 | 420 ft | 12 kts | 307° |
| 2026-05-07 11:48 | -37.66223 | 144.84723 | 420 ft | 0 kts | 277° |
| 2026-05-07 11:49 | -37.66211 | 144.84537 | 413 ft | 63 kts | 274° |
| 2026-05-07 11:49 | -37.66158 | 144.83631 | 424 ft | 140 kts | 274° |
| 2026-05-07 11:49 | -37.66088 | 144.82265 | 766 ft | 165 kts | 273° |
| 2026-05-07 11:49 | -37.66020 | 144.80854 | 1756 ft | 152 kts | 271° |
| 2026-05-07 11:50 | -37.65942 | 144.79548 | 2711 ft | 148 kts | 267° |
| 2026-05-07 11:50 | -37.65863 | 144.78267 | 3479 ft | 146 kts | 265° |
| 2026-05-07 11:50 | -37.65790 | 144.76889 | 3823 ft | 173 kts | 265° |
| 2026-05-07 11:50 | -37.65709 | 144.75303 | 4157 ft | 192 kts | 266° |
| 2026-05-07 11:51 | -37.65611 | 144.73516 | 4285 ft | 216 kts | 267° |
| 2026-05-07 11:51 | -37.65632 | 144.71549 | 4545 ft | 227 kts | 256° |
| 2026-05-07 11:51 | -37.66147 | 144.69693 | 5353 ft | 225 kts | 236° |
| 2026-05-07 11:51 | -37.67206 | 144.68225 | 6033 ft | 231 kts | 218° |
| 2026-05-07 11:52 | -37.68543 | 144.67058 | 6766 ft | 236 kts | 212° |
| 2026-05-07 11:52 | -37.69968 | 144.65992 | 7490 ft | 239 kts | 206° |
| 2026-05-07 11:52 | -37.71570 | 144.65387 | 8246 ft | 245 kts | 189° |
| 2026-05-07 11:52 | -37.73291 | 144.65577 | 8990 ft | 256 kts | 168° |
| 2026-05-07 11:53 | -37.74885 | 144.66715 | 9779 ft | 273 kts | 145° |
| 2026-05-07 11:53 | -37.76067 | 144.68654 | 10403 ft | 294 kts | 129° |
| 2026-05-07 11:53 | -37.77076 | 144.71054 | 10532 ft | 324 kts | 123° |
| 2026-05-07 11:53 | -37.78081 | 144.73732 | 10674 ft | 350 kts | 122° |
| 2026-05-07 11:54 | -37.79078 | 144.76624 | 11084 ft | 366 kts | 116° |
| 2026-05-07 11:54 | -37.79788 | 144.79767 | 11776 ft | 376 kts | 110° |
| 2026-05-07 11:54 | -37.80336 | 144.83029 | 12485 ft | 382 kts | 108° |
| 2026-05-07 11:54 | -37.80837 | 144.86355 | 13191 ft | 387 kts | 107° |
| 2026-05-07 11:55 | -37.81338 | 144.89723 | 13894 ft | 392 kts | 108° |
| 2026-05-07 11:55 | -37.81854 | 144.93127 | 14508 ft | 396 kts | 108° |
| 2026-05-07 11:55 | -37.82385 | 144.96562 | 15142 ft | 400 kts | 108° |
| 2026-05-07 11:55 | -37.82929 | 145.00027 | 15774 ft | 403 kts | 108° |
| 2026-05-07 11:56 | -37.83481 | 145.03521 | 16409 ft | 407 kts | 109° |
| 2026-05-07 11:56 | -37.84040 | 145.07045 | 17054 ft | 411 kts | 109° |
| 2026-05-07 11:56 | -37.84604 | 145.10608 | 17689 ft | 414 kts | 109° |
| 2026-05-07 11:56 | -37.85173 | 145.14195 | 18303 ft | 418 kts | 109° |
| 2026-05-07 11:57 | -37.85747 | 145.17824 | 18863 ft | 422 kts | 109° |
| 2026-05-07 11:57 | -37.86324 | 145.21478 | 19391 ft | 425 kts | 109° |
| 2026-05-07 11:57 | -37.86903 | 145.25157 | 19939 ft | 428 kts | 109° |
| 2026-05-07 11:57 | -37.87486 | 145.28868 | 20428 ft | 433 kts | 109° |
| 2026-05-07 11:58 | -37.88076 | 145.32632 | 20903 ft | 437 kts | 109° |
| 2026-05-07 11:58 | -37.88670 | 145.36427 | 21398 ft | 442 kts | 109° |
| 2026-05-07 11:58 | -37.89269 | 145.40264 | 21889 ft | 446 kts | 108° |
| 2026-05-07 11:58 | -37.89864 | 145.44087 | 22359 ft | 450 kts | 108° |
| 2026-05-07 11:59 | -37.90471 | 145.47998 | 22836 ft | 454 kts | 108° |
| 2026-05-07 11:59 | -37.91084 | 145.51945 | 23300 ft | 458 kts | 108° |
| 2026-05-07 11:59 | -37.91699 | 145.55920 | 23754 ft | 463 kts | 108° |
| 2026-05-07 11:59 | -37.92320 | 145.59942 | 24141 ft | 467 kts | 108° |
| 2026-05-07 12:00 | -37.92898 | 145.64016 | 24500 ft | 473 kts | 105° |
| 2026-05-07 12:00 | -37.93335 | 145.68174 | 24890 ft | 480 kts | 103° |
| 2026-05-07 12:00 | -37.93690 | 145.72397 | 25279 ft | 485 kts | 102° |
| 2026-05-07 12:00 | -37.94014 | 145.76667 | 25656 ft | 489 kts | 102° |
| 2026-05-07 12:01 | -37.94339 | 145.80969 | 26007 ft | 493 kts | 102° |
| 2026-05-07 12:01 | -37.94670 | 145.85247 | 26339 ft | 496 kts | 102° |
| 2026-05-07 12:01 | -37.95016 | 145.89617 | 26682 ft | 500 kts | 102° |
| 2026-05-07 12:01 | -37.95366 | 145.94015 | 27033 ft | 503 kts | 102° |
| 2026-05-07 12:02 | -37.95722 | 145.98442 | 27419 ft | 507 kts | 102° |
| 2026-05-07 12:02 | -37.96082 | 146.02897 | 27764 ft | 510 kts | 102° |
| 2026-05-07 12:02 | -37.96443 | 146.07384 | 28120 ft | 514 kts | 101° |
| 2026-05-07 12:02 | -37.96803 | 146.11892 | 28430 ft | 518 kts | 101° |
| 2026-05-07 12:03 | -37.97165 | 146.16443 | 28730 ft | 521 kts | 101° |
| 2026-05-07 12:03 | -37.97527 | 146.21031 | 29034 ft | 525 kts | 101° |
| 2026-05-07 12:03 | -37.97889 | 146.25648 | 29352 ft | 528 kts | 101° |
| 2026-05-07 12:03 | -37.98254 | 146.30300 | 29678 ft | 532 kts | 101° |
| 2026-05-07 12:04 | -37.98617 | 146.34974 | 30034 ft | 535 kts | 101° |
| 2026-05-07 12:04 | -37.98981 | 146.39682 | 30335 ft | 538 kts | 101° |
| 2026-05-07 12:04 | -37.99345 | 146.44422 | 30645 ft | 541 kts | 101° |
| 2026-05-07 12:04 | -37.99707 | 146.49167 | 30984 ft | 542 kts | 100° |
| 2026-05-07 12:05 | -38.00067 | 146.53930 | 31333 ft | 543 kts | 100° |
| 2026-05-07 12:05 | -38.00422 | 146.58625 | 31697 ft | 543 kts | 101° |
| 2026-05-07 12:05 | -38.00781 | 146.63388 | 32059 ft | 543 kts | 100° |
| 2026-05-07 12:05 | -38.01135 | 146.68156 | 32416 ft | 544 kts | 100° |
| 2026-05-07 12:06 | -38.01474 | 146.72930 | 32771 ft | 544 kts | 100° |
| 2026-05-07 12:06 | -38.01810 | 146.77712 | 33097 ft | 544 kts | 100° |
| 2026-05-07 12:06 | -38.02149 | 146.82489 | 33415 ft | 544 kts | 100° |
| 2026-05-07 12:06 | -38.02493 | 146.87270 | 33724 ft | 546 kts | 101° |
| 2026-05-07 12:07 | -38.02840 | 146.92072 | 33993 ft | 547 kts | 101° |
| 2026-05-07 12:07 | -38.03188 | 146.96878 | 34249 ft | 547 kts | 100° |
| 2026-05-07 12:07 | -38.03534 | 147.01674 | 34557 ft | 545 kts | 100° |
| 2026-05-07 12:07 | -38.03874 | 147.06457 | 34853 ft | 544 kts | 100° |
| 2026-05-07 12:08 | -38.04214 | 147.11237 | 35094 ft | 545 kts | 100° |
| 2026-05-07 12:08 | -38.04896 | 147.20857 | 35126 ft | 547 kts | 100° |
| 2026-05-07 12:09 | -38.05563 | 147.30449 | 35115 ft | 545 kts | 99° |
| 2026-05-07 12:09 | -38.06224 | 147.40027 | 35136 ft | 546 kts | 99° |
| 2026-05-07 12:10 | -38.06878 | 147.49620 | 35111 ft | 546 kts | 99° |
| 2026-05-07 12:10 | -38.07523 | 147.59229 | 35115 ft | 547 kts | 99° |
| 2026-05-07 12:11 | -38.08160 | 147.68847 | 35123 ft | 547 kts | 99° |
| 2026-05-07 12:11 | -38.08770 | 147.78459 | 35103 ft | 546 kts | 99° |
| 2026-05-07 12:12 | -38.09358 | 147.88015 | 35098 ft | 546 kts | 99° |
| 2026-05-07 12:12 | -38.09964 | 147.97627 | 35107 ft | 546 kts | 99° |
| 2026-05-07 12:13 | -38.10571 | 148.07223 | 35092 ft | 545 kts | 99° |
| 2026-05-07 12:13 | -38.11170 | 148.16813 | 35086 ft | 545 kts | 99° |
| 2026-05-07 12:14 | -38.11760 | 148.26416 | 35092 ft | 545 kts | 99° |
| 2026-05-07 12:14 | -38.12341 | 148.36006 | 35082 ft | 545 kts | 99° |
| 2026-05-07 12:15 | -38.12915 | 148.45602 | 35080 ft | 545 kts | 99° |
| 2026-05-07 12:15 | -38.13479 | 148.55194 | 35070 ft | 543 kts | 98° |
| 2026-05-07 12:16 | -38.14032 | 148.64752 | 35064 ft | 542 kts | 98° |
| 2026-05-07 12:16 | -38.14581 | 148.74310 | 35064 ft | 542 kts | 98° |
| 2026-05-07 12:17 | -38.15103 | 148.83873 | 35061 ft | 541 kts | 98° |
| 2026-05-07 12:17 | -38.15602 | 148.93413 | 35052 ft | 541 kts | 98° |
| 2026-05-07 12:18 | -38.16117 | 149.02934 | 35047 ft | 541 kts | 98° |
| 2026-05-07 12:18 | -38.16633 | 149.12467 | 35054 ft | 539 kts | 98° |
| 2026-05-07 12:19 | -38.17140 | 149.21963 | 35046 ft | 539 kts | 97° |
| 2026-05-07 12:19 | -38.17635 | 149.31413 | 35050 ft | 539 kts | 97° |
| 2026-05-07 12:20 | -38.18125 | 149.40916 | 35045 ft | 539 kts | 97° |
| 2026-05-07 12:20 | -38.18608 | 149.50425 | 35030 ft | 539 kts | 97° |
| 2026-05-07 12:21 | -38.19083 | 149.59921 | 35044 ft | 538 kts | 97° |
| 2026-05-07 12:21 | -38.19548 | 149.69413 | 35040 ft | 537 kts | 97° |
| 2026-05-07 12:22 | -38.20005 | 149.78878 | 35027 ft | 537 kts | 97° |
| 2026-05-07 12:22 | -38.20439 | 149.88353 | 35023 ft | 537 kts | 97° |
| 2026-05-07 12:23 | -38.20850 | 149.97831 | 35026 ft | 535 kts | 96° |
| 2026-05-07 12:23 | -38.21273 | 150.07278 | 35016 ft | 535 kts | 97° |
| 2026-05-07 12:24 | -38.21700 | 150.16737 | 35015 ft | 535 kts | 97° |
| 2026-05-07 12:24 | -38.22121 | 150.26178 | 35020 ft | 534 kts | 96° |
| 2026-05-07 12:25 | -38.22612 | 150.35577 | 35001 ft | 532 kts | 99° |
| 2026-05-07 12:25 | -38.23353 | 150.44930 | 34997 ft | 532 kts | 100° |
| 2026-05-07 12:26 | -38.24146 | 150.54280 | 34994 ft | 531 kts | 100° |
| 2026-05-07 12:26 | -38.24918 | 150.63615 | 34984 ft | 531 kts | 99° |
| 2026-05-07 12:27 | -38.25664 | 150.72907 | 34993 ft | 531 kts | 99° |
| 2026-05-07 12:27 | -38.26404 | 150.82250 | 34987 ft | 530 kts | 99° |
| 2026-05-07 12:28 | -38.27135 | 150.91562 | 34973 ft | 528 kts | 99° |
| 2026-05-07 12:28 | -38.27861 | 151.00883 | 34969 ft | 529 kts | 99° |
| 2026-05-07 12:29 | -38.28576 | 151.10206 | 34970 ft | 528 kts | 99° |
| 2026-05-07 12:29 | -38.29162 | 151.17914 | 34969 ft | 525 kts | 99° |
| 2026-05-07 12:30 | -38.29860 | 151.27177 | 34964 ft | 526 kts | 99° |
| 2026-05-07 12:30 | -38.30552 | 151.36444 | 34956 ft | 526 kts | 99° |
| 2026-05-07 12:31 | -38.31202 | 151.45698 | 34952 ft | 522 kts | 99° |
| 2026-05-07 12:31 | -38.31855 | 151.54910 | 34953 ft | 523 kts | 99° |
| 2026-05-07 12:32 | -38.32518 | 151.64129 | 34965 ft | 523 kts | 99° |
| 2026-05-07 12:32 | -38.33176 | 151.73323 | 34944 ft | 520 kts | 99° |
| 2026-05-07 12:33 | -38.34143 | 151.87050 | 34936 ft | 520 kts | 99° |
| 2026-05-07 12:33 | -38.34782 | 151.96218 | 34943 ft | 520 kts | 99° |
| 2026-05-07 12:34 | -38.35406 | 152.05350 | 34935 ft | 516 kts | 98° |
| 2026-05-07 12:34 | -38.36026 | 152.14474 | 34931 ft | 517 kts | 98° |
| 2026-05-07 12:35 | -38.36640 | 152.23597 | 34929 ft | 517 kts | 98° |
| 2026-05-07 12:35 | -38.37247 | 152.32727 | 34927 ft | 517 kts | 98° |
| 2026-05-07 12:36 | -38.37841 | 152.41853 | 34917 ft | 517 kts | 98° |
| 2026-05-07 12:36 | -38.38400 | 152.50991 | 34923 ft | 517 kts | 98° |
| 2026-05-07 12:37 | -38.38963 | 152.60123 | 34916 ft | 515 kts | 98° |
| 2026-05-07 12:37 | -38.39532 | 152.69195 | 34919 ft | 513 kts | 98° |
| 2026-05-07 12:38 | -38.40096 | 152.78214 | 34912 ft | 514 kts | 98° |
| 2026-05-07 12:38 | -38.40659 | 152.87350 | 34922 ft | 513 kts | 98° |
| 2026-05-07 12:39 | -38.41203 | 152.96329 | 34908 ft | 510 kts | 98° |
| 2026-05-07 12:39 | -38.41745 | 153.05347 | 34906 ft | 511 kts | 98° |
| 2026-05-07 12:40 | -38.42281 | 153.14386 | 34917 ft | 511 kts | 98° |
| 2026-05-07 12:40 | -38.42807 | 153.23396 | 34900 ft | 508 kts | 98° |
| 2026-05-07 12:41 | -38.43326 | 153.32373 | 34893 ft | 508 kts | 98° |
| 2026-05-07 12:41 | -38.43839 | 153.41364 | 34884 ft | 508 kts | 98° |
| 2026-05-07 12:42 | -38.44332 | 153.50359 | 34883 ft | 508 kts | 98° |
| 2026-05-07 12:42 | -38.44795 | 153.59328 | 34871 ft | 506 kts | 98° |
| 2026-05-07 12:43 | -38.45271 | 153.68297 | 34867 ft | 507 kts | 98° |
| 2026-05-07 12:43 | -38.45753 | 153.77275 | 34871 ft | 507 kts | 98° |
| 2026-05-07 12:44 | -38.46226 | 153.86213 | 34860 ft | 503 kts | 98° |
| 2026-05-07 12:44 | -38.46691 | 153.95127 | 34851 ft | 504 kts | 98° |
| 2026-05-07 12:45 | -38.47152 | 154.04055 | 34840 ft | 504 kts | 98° |
| 2026-05-07 12:45 | -38.47606 | 154.12972 | 34825 ft | 501 kts | 98° |
| 2026-05-07 12:46 | -38.48049 | 154.21822 | 34823 ft | 499 kts | 97° |
| 2026-05-07 12:46 | -38.48482 | 154.30616 | 34817 ft | 500 kts | 97° |
| 2026-05-07 12:47 | -38.48910 | 154.39470 | 34817 ft | 500 kts | 97° |
| 2026-05-07 12:47 | -38.49330 | 154.48296 | 34813 ft | 499 kts | 97° |
| 2026-05-07 12:48 | -38.49733 | 154.57138 | 34801 ft | 499 kts | 96° |
| 2026-05-07 12:48 | -38.50110 | 154.65987 | 34794 ft | 499 kts | 96° |
| 2026-05-07 12:49 | -38.50500 | 154.74855 | 34793 ft | 502 kts | 96° |
| 2026-05-07 12:49 | -38.50898 | 154.83772 | 34796 ft | 503 kts | 95° |
| 2026-05-07 12:50 | -38.51290 | 154.92685 | 34787 ft | 503 kts | 95° |
| 2026-05-07 12:50 | -38.51677 | 155.01605 | 34792 ft | 503 kts | 94° |
| 2026-05-07 12:51 | -38.52055 | 155.10529 | 34784 ft | 504 kts | 94° |
| 2026-05-07 12:51 | -38.52426 | 155.19466 | 34781 ft | 504 kts | 94° |
| 2026-05-07 12:52 | -38.52790 | 155.28402 | 34776 ft | 504 kts | 94° |
| 2026-05-07 12:52 | -38.53150 | 155.37356 | 34770 ft | 504 kts | 94° |
| 2026-05-07 12:53 | -38.53500 | 155.46295 | 34772 ft | 504 kts | 94° |
| 2026-05-07 12:53 | -38.53844 | 155.55236 | 34766 ft | 504 kts | 94° |
| 2026-05-07 12:54 | -38.54166 | 155.64174 | 34768 ft | 504 kts | 93° |
| 2026-05-07 12:54 | -38.54466 | 155.73131 | 34764 ft | 504 kts | 93° |
| 2026-05-07 12:55 | -38.54780 | 155.82071 | 34754 ft | 504 kts | 93° |
| 2026-05-07 12:55 | -38.55096 | 155.90967 | 34753 ft | 505 kts | 93° |
| 2026-05-07 12:56 | -38.55408 | 155.99938 | 34748 ft | 506 kts | 92° |
| 2026-05-07 12:56 | -38.55712 | 156.08922 | 34752 ft | 506 kts | 92° |
| 2026-05-07 12:57 | -38.56009 | 156.17905 | 34747 ft | 506 kts | 92° |
| 2026-05-07 12:57 | -38.56298 | 156.26890 | 34741 ft | 506 kts | 91° |
| 2026-05-07 12:58 | -38.56583 | 156.35854 | 34741 ft | 505 kts | 91° |
| 2026-05-07 12:58 | -38.56859 | 156.44812 | 34736 ft | 505 kts | 91° |
| 2026-05-07 12:59 | -38.57132 | 156.53781 | 34730 ft | 506 kts | 91° |
| 2026-05-07 12:59 | -38.57397 | 156.62759 | 34730 ft | 505 kts | 90° |
| 2026-05-07 13:00 | -38.57626 | 156.71751 | 34726 ft | 507 kts | 90° |
| 2026-05-07 13:00 | -38.57847 | 156.80761 | 34726 ft | 507 kts | 90° |
| 2026-05-07 13:01 | -38.58081 | 156.89706 | 34715 ft | 507 kts | 90° |
| 2026-05-07 13:01 | -38.58318 | 156.98745 | 34716 ft | 511 kts | 89° |
| 2026-05-07 13:02 | -38.58550 | 157.07824 | 34710 ft | 511 kts | 89° |
| 2026-05-07 13:02 | -38.58776 | 157.16882 | 34708 ft | 511 kts | 89° |
| 2026-05-07 13:03 | -38.58993 | 157.25954 | 34706 ft | 510 kts | 88° |
| 2026-05-07 13:03 | -38.59201 | 157.34964 | 34709 ft | 505 kts | 88° |
| 2026-05-07 13:04 | -38.59402 | 157.43923 | 34707 ft | 505 kts | 88° |
| 2026-05-07 13:04 | -38.59605 | 157.52909 | 34707 ft | 505 kts | 88° |
| 2026-05-07 13:05 | -38.59811 | 157.61873 | 34692 ft | 504 kts | 87° |
| 2026-05-07 13:05 | -38.59978 | 157.70820 | 34690 ft | 503 kts | 86° |
| 2026-05-07 13:06 | -38.60135 | 157.79766 | 34693 ft | 503 kts | 86° |
| 2026-05-07 13:06 | -38.60289 | 157.88716 | 34674 ft | 503 kts | 86° |
| 2026-05-07 13:07 | -38.60440 | 157.97672 | 34683 ft | 505 kts | 86° |
| 2026-05-07 13:07 | -38.60585 | 158.06658 | 34687 ft | 505 kts | 86° |
| 2026-05-07 13:08 | -38.60719 | 158.15642 | 34676 ft | 505 kts | 86° |
| 2026-05-07 13:08 | -38.60850 | 158.24621 | 34658 ft | 505 kts | 85° |
| 2026-05-07 13:09 | -38.60959 | 158.33620 | 34672 ft | 507 kts | 85° |
| 2026-05-07 13:09 | -38.61069 | 158.42568 | 34672 ft | 507 kts | 85° |
| 2026-05-07 13:10 | -38.61184 | 158.51574 | 34672 ft | 507 kts | 85° |
| 2026-05-07 13:10 | -38.61295 | 158.60576 | 34664 ft | 506 kts | 85° |
| 2026-05-07 13:11 | -38.61399 | 158.69579 | 34664 ft | 506 kts | 85° |
| 2026-05-07 13:11 | -38.61495 | 158.78584 | 34659 ft | 506 kts | 85° |
| 2026-05-07 13:12 | -38.61588 | 158.87587 | 34631 ft | 506 kts | 85° |
| 2026-05-07 13:12 | -38.61672 | 158.96578 | 34656 ft | 506 kts | 84° |
| 2026-05-07 13:13 | -38.61748 | 159.05576 | 34655 ft | 506 kts | 84° |
| 2026-05-07 13:13 | -38.61818 | 159.14577 | 34652 ft | 506 kts | 84° |
| 2026-05-07 13:14 | -38.61870 | 159.22053 | 34637 ft | 505 kts | 83° |
| 2026-05-07 13:14 | -38.61927 | 159.31030 | 34649 ft | 504 kts | 83° |
| 2026-05-07 13:15 | -38.61950 | 159.39990 | 34647 ft | 504 kts | 83° |
| 2026-05-07 13:15 | -38.61970 | 159.48962 | 34652 ft | 505 kts | 83° |
| 2026-05-07 13:16 | -38.62001 | 159.57960 | 34637 ft | 506 kts | 83° |
| 2026-05-07 13:16 | -38.62030 | 159.66957 | 34652 ft | 506 kts | 83° |
| 2026-05-07 13:17 | -38.62054 | 159.75951 | 34642 ft | 506 kts | 82° |
| 2026-05-07 13:17 | -38.62070 | 159.84928 | 34653 ft | 505 kts | 82° |
| 2026-05-07 13:18 | -38.62079 | 159.93923 | 34643 ft | 507 kts | 82° |
| 2026-05-07 13:18 | -38.62080 | 160.02952 | 34653 ft | 508 kts | 82° |
| 2026-05-07 13:19 | -38.62076 | 160.11921 | 34651 ft | 507 kts | 82° |
| 2026-05-07 13:19 | -38.62064 | 160.20945 | 34613 ft | 507 kts | 81° |
| 2026-05-07 13:20 | -38.62044 | 160.29977 | 34644 ft | 509 kts | 81° |
| 2026-05-07 13:20 | -38.62013 | 160.39038 | 34653 ft | 509 kts | 81° |
| 2026-05-07 13:21 | -38.61950 | 160.48083 | 34658 ft | 509 kts | 81° |
| 2026-05-07 13:21 | -38.61890 | 160.57133 | 34646 ft | 509 kts | 81° |
| 2026-05-07 13:22 | -38.61838 | 160.66212 | 34649 ft | 511 kts | 81° |
| 2026-05-07 13:22 | -38.61786 | 160.75311 | 34662 ft | 512 kts | 81° |
| 2026-05-07 13:23 | -38.61725 | 160.84410 | 34664 ft | 512 kts | 81° |
| 2026-05-07 13:23 | -38.61658 | 160.93503 | 34663 ft | 512 kts | 80° |
| 2026-05-07 13:24 | -38.61582 | 161.02623 | 34675 ft | 513 kts | 80° |
| 2026-05-07 13:24 | -38.61499 | 161.11743 | 34675 ft | 512 kts | 80° |
| 2026-05-07 13:25 | -38.61405 | 161.20855 | 34678 ft | 512 kts | 80° |
| 2026-05-07 13:25 | -38.61309 | 161.29971 | 34681 ft | 514 kts | 80° |
| 2026-05-07 13:26 | -38.61206 | 161.39055 | 34682 ft | 514 kts | 80° |
| 2026-05-07 13:26 | -38.61086 | 161.48190 | 34689 ft | 513 kts | 79° |
| 2026-05-07 13:27 | -38.60934 | 161.57314 | 34676 ft | 513 kts | 79° |
| 2026-05-07 13:27 | -38.60793 | 161.66465 | 34685 ft | 516 kts | 79° |
| 2026-05-07 13:28 | -38.60659 | 161.75645 | 34696 ft | 516 kts | 79° |
| 2026-05-07 13:28 | -38.60520 | 161.84815 | 34693 ft | 516 kts | 79° |
| 2026-05-07 13:29 | -38.60376 | 161.93981 | 34692 ft | 516 kts | 79° |
| 2026-05-07 13:29 | -38.60220 | 162.03148 | 34709 ft | 516 kts | 79° |
| 2026-05-07 13:30 | -38.60058 | 162.12308 | 34715 ft | 515 kts | 79° |
| 2026-05-07 13:30 | -38.59888 | 162.21472 | 34711 ft | 515 kts | 79° |
| 2026-05-07 13:31 | -38.59710 | 162.30633 | 34707 ft | 516 kts | 79° |
| 2026-05-07 13:31 | -38.59523 | 162.39821 | 34724 ft | 517 kts | 79° |
| 2026-05-07 13:32 | -38.59335 | 162.49019 | 34725 ft | 517 kts | 79° |
| 2026-05-07 13:32 | -38.59109 | 162.58185 | 34733 ft | 516 kts | 79° |
| 2026-05-07 13:33 | -38.58878 | 162.67356 | 34730 ft | 517 kts | 79° |
| 2026-05-07 13:33 | -38.58659 | 162.76542 | 34735 ft | 517 kts | 79° |
| 2026-05-07 13:34 | -38.58328 | 162.90257 | 34738 ft | 517 kts | 79° |
| 2026-05-07 13:35 | -38.58098 | 162.99428 | 34735 ft | 516 kts | 80° |
| 2026-05-07 13:35 | -38.57846 | 163.08612 | 34747 ft | 517 kts | 80° |
| 2026-05-07 13:36 | -38.57597 | 163.17789 | 34736 ft | 517 kts | 80° |
| 2026-05-07 13:36 | -38.57345 | 163.26984 | 34750 ft | 519 kts | 80° |
| 2026-05-07 13:37 | -38.57087 | 163.36195 | 34743 ft | 517 kts | 81° |
| 2026-05-07 13:37 | -38.56824 | 163.45363 | 34757 ft | 516 kts | 81° |
| 2026-05-07 13:38 | -38.56550 | 163.54537 | 34762 ft | 517 kts | 81° |
| 2026-05-07 13:38 | -38.56272 | 163.63704 | 34760 ft | 516 kts | 80° |
| 2026-05-07 13:39 | -38.55986 | 163.72876 | 34762 ft | 516 kts | 81° |
| 2026-05-07 13:39 | -38.55693 | 163.82037 | 34772 ft | 516 kts | 81° |
| 2026-05-07 13:40 | -38.55393 | 163.91199 | 34772 ft | 516 kts | 81° |
| 2026-05-07 13:40 | -38.55086 | 164.00358 | 34773 ft | 516 kts | 81° |
| 2026-05-07 13:41 | -38.54755 | 164.09482 | 34775 ft | 512 kts | 81° |
| 2026-05-07 13:41 | -38.54409 | 164.18541 | 34782 ft | 510 kts | 81° |
| 2026-05-07 13:42 | -38.54071 | 164.27607 | 34784 ft | 511 kts | 81° |
| 2026-05-07 13:42 | -38.53738 | 164.36679 | 34749 ft | 511 kts | 81° |
| 2026-05-07 13:43 | -38.53403 | 164.45713 | 34767 ft | 507 kts | 81° |
| 2026-05-07 13:43 | -38.53060 | 164.54655 | 34790 ft | 509 kts | 81° |
| 2026-05-07 13:44 | -38.52705 | 164.63697 | 34790 ft | 510 kts | 81° |
| 2026-05-07 13:44 | -38.52348 | 164.72736 | 34781 ft | 509 kts | 81° |
| 2026-05-07 13:45 | -38.51982 | 164.81754 | 34798 ft | 508 kts | 81° |
| 2026-05-07 13:45 | -38.51610 | 164.90755 | 34799 ft | 507 kts | 81° |
| 2026-05-07 13:46 | -38.51231 | 164.99748 | 34799 ft | 507 kts | 81° |
| 2026-05-07 13:46 | -38.50843 | 165.08748 | 34778 ft | 507 kts | 81° |
| 2026-05-07 13:47 | -38.50426 | 165.17741 | 34794 ft | 507 kts | 81° |
| 2026-05-07 13:47 | -38.49998 | 165.26731 | 34801 ft | 508 kts | 81° |
| 2026-05-07 13:48 | -38.49585 | 165.35718 | 34808 ft | 507 kts | 81° |
| 2026-05-07 13:48 | -38.49175 | 165.44702 | 34803 ft | 507 kts | 81° |
| 2026-05-07 13:49 | -38.48758 | 165.53699 | 34810 ft | 507 kts | 81° |
| 2026-05-07 13:49 | -38.48331 | 165.62686 | 34818 ft | 507 kts | 81° |
| 2026-05-07 13:50 | -38.47900 | 165.71677 | 34815 ft | 507 kts | 81° |
| 2026-05-07 13:50 | -38.47459 | 165.80666 | 34806 ft | 508 kts | 81° |
| 2026-05-07 13:51 | -38.47007 | 165.89678 | 34818 ft | 509 kts | 81° |
| 2026-05-07 13:51 | -38.46550 | 165.98688 | 34821 ft | 509 kts | 81° |
| 2026-05-07 13:52 | -38.46087 | 166.07695 | 34828 ft | 509 kts | 81° |
| 2026-05-07 13:52 | -38.45613 | 166.16711 | 34812 ft | 509 kts | 81° |
| 2026-05-07 13:53 | -38.45106 | 166.25720 | 34834 ft | 510 kts | 81° |
| 2026-05-07 13:53 | -38.44602 | 166.34737 | 34834 ft | 510 kts | 81° |
| 2026-05-07 13:54 | -38.44106 | 166.43752 | 34831 ft | 510 kts | 81° |
| 2026-05-07 13:54 | -38.43614 | 166.52723 | 34833 ft | 509 kts | 81° |
| 2026-05-07 13:55 | -38.43112 | 166.61726 | 34839 ft | 508 kts | 81° |
| 2026-05-07 13:55 | -38.42600 | 166.70714 | 34846 ft | 508 kts | 81° |
| 2026-05-07 13:56 | -38.42083 | 166.79711 | 34846 ft | 509 kts | 81° |
| 2026-05-07 13:56 | -38.41557 | 166.88706 | 34829 ft | 508 kts | 81° |
| 2026-05-07 13:57 | -38.41025 | 166.97699 | 34850 ft | 509 kts | 81° |
| 2026-05-07 13:57 | -38.40486 | 167.06696 | 34851 ft | 508 kts | 81° |
| 2026-05-07 13:58 | -38.39938 | 167.15683 | 34853 ft | 510 kts | 81° |
| 2026-05-07 13:58 | -38.39471 | 167.23232 | 34839 ft | 510 kts | 80° |
| 2026-05-07 13:59 | -38.38885 | 167.32175 | 34855 ft | 509 kts | 80° |
| 2026-05-07 13:59 | -38.38300 | 167.41165 | 34856 ft | 509 kts | 80° |
| 2026-05-07 14:00 | -38.37723 | 167.50160 | 34856 ft | 509 kts | 80° |
| 2026-05-07 14:00 | -38.37146 | 167.59154 | 34862 ft | 509 kts | 80° |
| 2026-05-07 14:01 | -38.36563 | 167.68125 | 34865 ft | 506 kts | 80° |
| 2026-05-07 14:01 | -38.35974 | 167.77049 | 34867 ft | 505 kts | 80° |
| 2026-05-07 14:02 | -38.35375 | 167.85984 | 34866 ft | 506 kts | 80° |
| 2026-05-07 14:02 | -38.34772 | 167.94903 | 34866 ft | 506 kts | 80° |
| 2026-05-07 14:03 | -38.34166 | 168.03804 | 34875 ft | 504 kts | 79° |
| 2026-05-07 14:03 | -38.33554 | 168.12675 | 34880 ft | 503 kts | 79° |
| 2026-05-07 14:04 | -38.32933 | 168.21542 | 34883 ft | 503 kts | 79° |
| 2026-05-07 14:04 | -38.32308 | 168.30398 | 34890 ft | 502 kts | 79° |
| 2026-05-07 14:05 | -38.31637 | 168.39269 | 34892 ft | 504 kts | 79° |
| 2026-05-07 14:05 | -38.30976 | 168.48164 | 34892 ft | 506 kts | 79° |
| 2026-05-07 14:06 | -38.30324 | 168.57083 | 34898 ft | 506 kts | 79° |
| 2026-05-07 14:06 | -38.29673 | 168.66003 | 34895 ft | 505 kts | 79° |
| 2026-05-07 14:07 | -38.29006 | 168.74913 | 34899 ft | 507 kts | 79° |
| 2026-05-07 14:07 | -38.28332 | 168.83860 | 34902 ft | 508 kts | 79° |
| 2026-05-07 14:08 | -38.27657 | 168.92742 | 34901 ft | 509 kts | 80° |
| 2026-05-07 14:08 | -38.26966 | 169.01761 | 34907 ft | 508 kts | 79° |
| 2026-05-07 14:09 | -38.26278 | 169.10638 | 34907 ft | 507 kts | 79° |
| 2026-05-07 14:09 | -38.25575 | 169.19570 | 34914 ft | 507 kts | 79° |
| 2026-05-07 14:10 | -38.24864 | 169.28511 | 34919 ft | 507 kts | 79° |
| 2026-05-07 14:10 | -38.24141 | 169.37432 | 34921 ft | 507 kts | 79° |
| 2026-05-07 14:11 | -38.23390 | 169.46352 | 34918 ft | 506 kts | 79° |
| 2026-05-07 14:11 | -38.22649 | 169.55279 | 34925 ft | 508 kts | 79° |
| 2026-05-07 14:12 | -38.21913 | 169.64204 | 34931 ft | 508 kts | 79° |
| 2026-05-07 14:12 | -38.21174 | 169.73129 | 34932 ft | 508 kts | 79° |
| 2026-05-07 14:13 | -38.20427 | 169.82054 | 34924 ft | 508 kts | 79° |
| 2026-05-07 14:13 | -38.19671 | 169.90988 | 34940 ft | 508 kts | 79° |
| 2026-05-07 14:14 | -38.18908 | 169.99883 | 34939 ft | 508 kts | 79° |
| 2026-05-07 14:14 | -38.18135 | 170.08810 | 34952 ft | 508 kts | 79° |
| 2026-05-07 14:15 | -38.17361 | 170.17746 | 34937 ft | 508 kts | 79° |
| 2026-05-07 14:15 | -38.16587 | 170.26657 | 34956 ft | 507 kts | 79° |
| 2026-05-07 14:16 | -38.15801 | 170.35556 | 34961 ft | 507 kts | 79° |
| 2026-05-07 14:16 | -38.14987 | 170.44447 | 34960 ft | 507 kts | 79° |
| 2026-05-07 14:17 | -38.14156 | 170.53354 | 34971 ft | 507 kts | 79° |
| 2026-05-07 14:17 | -38.13341 | 170.62246 | 34970 ft | 506 kts | 79° |
| 2026-05-07 14:18 | -38.12532 | 170.71103 | 34974 ft | 505 kts | 79° |
| 2026-05-07 14:18 | -38.11716 | 170.79906 | 34979 ft | 505 kts | 78° |
| 2026-05-07 14:19 | -38.09948 | 170.88410 | 34980 ft | 495 kts | 63° |
| 2026-05-07 14:19 | -38.07090 | 170.96312 | 34979 ft | 492 kts | 59° |
| 2026-05-07 14:20 | -38.04134 | 171.04140 | 34986 ft | 492 kts | 59° |
| 2026-05-07 14:20 | -38.01271 | 171.12038 | 34998 ft | 493 kts | 60° |
| 2026-05-07 14:21 | -37.98458 | 171.19961 | 35000 ft | 493 kts | 60° |
| 2026-05-07 14:21 | -37.95643 | 171.27887 | 35009 ft | 493 kts | 60° |
| 2026-05-07 14:22 | -37.92823 | 171.35798 | 35013 ft | 493 kts | 60° |
| 2026-05-07 14:22 | -37.89988 | 171.43715 | 35013 ft | 493 kts | 60° |
| 2026-05-07 14:23 | -37.87153 | 171.51621 | 35020 ft | 493 kts | 60° |
| 2026-05-07 14:23 | -37.84303 | 171.59537 | 35025 ft | 495 kts | 60° |
| 2026-05-07 14:24 | -37.81444 | 171.67450 | 35019 ft | 495 kts | 60° |
| 2026-05-07 14:24 | -37.78571 | 171.75380 | 35030 ft | 496 kts | 60° |
| 2026-05-07 14:25 | -37.75687 | 171.83275 | 35038 ft | 494 kts | 59° |
| 2026-05-07 14:25 | -37.72817 | 171.91114 | 35031 ft | 493 kts | 60° |
| 2026-05-07 14:26 | -37.69944 | 171.99009 | 35049 ft | 496 kts | 59° |
| 2026-05-07 14:26 | -37.67051 | 172.06884 | 35036 ft | 495 kts | 59° |
| 2026-05-07 14:27 | -37.64148 | 172.14795 | 35055 ft | 497 kts | 59° |
| 2026-05-07 14:27 | -37.61245 | 172.22703 | 35056 ft | 499 kts | 60° |
| 2026-05-07 14:28 | -37.58341 | 172.30623 | 35061 ft | 496 kts | 59° |
| 2026-05-07 14:28 | -37.55422 | 172.38512 | 34893 ft | 497 kts | 59° |
| 2026-05-07 14:28 | -37.53967 | 172.42436 | 34625 ft | 491 kts | 59° |
| 2026-05-07 14:29 | -37.52527 | 172.46321 | 34218 ft | 488 kts | 59° |
| 2026-05-07 14:29 | -37.51093 | 172.50187 | 33645 ft | 486 kts | 59° |
| 2026-05-07 14:29 | -37.49661 | 172.54040 | 33053 ft | 484 kts | 59° |
| 2026-05-07 14:29 | -37.48228 | 172.57884 | 32477 ft | 485 kts | 59° |
| 2026-05-07 14:30 | -37.46794 | 172.61727 | 31943 ft | 486 kts | 60° |
| 2026-05-07 14:30 | -37.45354 | 172.65589 | 31395 ft | 488 kts | 60° |
| 2026-05-07 14:30 | -37.43909 | 172.69460 | 30854 ft | 489 kts | 60° |
| 2026-05-07 14:30 | -37.42461 | 172.73332 | 30307 ft | 489 kts | 60° |
| 2026-05-07 14:31 | -37.41022 | 172.77154 | 29704 ft | 489 kts | 60° |
| 2026-05-07 14:31 | -37.39537 | 172.81073 | 29033 ft | 490 kts | 60° |
| 2026-05-07 14:31 | -37.38065 | 172.84951 | 28402 ft | 493 kts | 60° |
| 2026-05-07 14:31 | -37.36590 | 172.88852 | 27772 ft | 495 kts | 60° |
| 2026-05-07 14:32 | -37.35111 | 172.92768 | 27148 ft | 497 kts | 60° |
| 2026-05-07 14:32 | -37.33644 | 172.96657 | 26534 ft | 499 kts | 60° |
| 2026-05-07 14:32 | -37.32157 | 173.00601 | 25901 ft | 499 kts | 60° |
| 2026-05-07 14:32 | -37.30683 | 173.04509 | 25284 ft | 496 kts | 60° |
| 2026-05-07 14:33 | -37.29212 | 173.08407 | 24667 ft | 492 kts | 60° |
| 2026-05-07 14:33 | -37.27751 | 173.12276 | 24055 ft | 488 kts | 60° |
| 2026-05-07 14:33 | -37.26296 | 173.16117 | 23378 ft | 485 kts | 60° |
| 2026-05-07 14:33 | -37.24851 | 173.19923 | 22725 ft | 481 kts | 61° |
| 2026-05-07 14:34 | -37.23417 | 173.23695 | 22101 ft | 476 kts | 60° |
| 2026-05-07 14:34 | -37.21998 | 173.27422 | 21495 ft | 471 kts | 60° |
| 2026-05-07 14:34 | -37.20594 | 173.31108 | 20906 ft | 466 kts | 60° |
| 2026-05-07 14:34 | -37.19201 | 173.34758 | 20335 ft | 462 kts | 60° |
| 2026-05-07 14:35 | -37.17821 | 173.38373 | 19751 ft | 457 kts | 60° |
| 2026-05-07 14:35 | -37.16457 | 173.41942 | 19179 ft | 452 kts | 60° |
| 2026-05-07 14:35 | -37.15195 | 173.45539 | 18610 ft | 451 kts | 68° |
| 2026-05-07 14:35 | -37.14468 | 173.49361 | 17973 ft | 451 kts | 78° |
| 2026-05-07 14:36 | -37.14132 | 173.53257 | 17340 ft | 448 kts | 83° |
| 2026-05-07 14:36 | -37.13955 | 173.57134 | 16736 ft | 443 kts | 84° |
| 2026-05-07 14:36 | -37.13814 | 173.60962 | 16312 ft | 436 kts | 84° |
| 2026-05-07 14:36 | -37.13661 | 173.64739 | 16133 ft | 428 kts | 84° |
| 2026-05-07 14:37 | -37.13490 | 173.68352 | 15934 ft | 404 kts | 83° |
| 2026-05-07 14:37 | -37.13113 | 173.75123 | 14929 ft | 379 kts | 82° |
| 2026-05-07 14:37 | -37.12914 | 173.78381 | 14392 ft | 370 kts | 82° |
| 2026-05-07 14:38 | -37.12721 | 173.81558 | 13864 ft | 362 kts | 82° |
| 2026-05-07 14:38 | -37.12529 | 173.84679 | 13301 ft | 358 kts | 82° |
| 2026-05-07 14:38 | -37.12335 | 173.87772 | 12774 ft | 355 kts | 82° |
| 2026-05-07 14:38 | -37.12141 | 173.90848 | 12265 ft | 353 kts | 82° |
| 2026-05-07 14:39 | -37.11946 | 173.93893 | 11774 ft | 349 kts | 82° |
| 2026-05-07 14:39 | -37.11755 | 173.96909 | 11284 ft | 346 kts | 82° |
| 2026-05-07 14:39 | -37.11566 | 173.99887 | 10952 ft | 341 kts | 82° |
| 2026-05-07 14:39 | -37.11383 | 174.02780 | 10807 ft | 330 kts | 82° |
| 2026-05-07 14:40 | -37.11208 | 174.05559 | 10681 ft | 310 kts | 82° |
| 2026-05-07 14:40 | -37.11046 | 174.08195 | 10496 ft | 299 kts | 82° |
| 2026-05-07 14:40 | -37.10876 | 174.10838 | 10071 ft | 301 kts | 82° |
| 2026-05-07 14:40 | -37.10705 | 174.13407 | 9650 ft | 297 kts | 81° |
| 2026-05-07 14:41 | -37.10536 | 174.15973 | 9170 ft | 294 kts | 82° |
| 2026-05-07 14:41 | -37.10372 | 174.18511 | 8719 ft | 290 kts | 82° |
| 2026-05-07 14:41 | -37.10212 | 174.21017 | 8278 ft | 287 kts | 81° |
| 2026-05-07 14:41 | -37.10053 | 174.23493 | 7806 ft | 285 kts | 81° |
| 2026-05-07 14:42 | -37.09889 | 174.25970 | 7310 ft | 284 kts | 81° |
| 2026-05-07 14:42 | -37.09729 | 174.28422 | 6880 ft | 281 kts | 81° |
| 2026-05-07 14:42 | -37.09568 | 174.30853 | 6459 ft | 278 kts | 82° |
| 2026-05-07 14:42 | -37.09410 | 174.33243 | 6069 ft | 273 kts | 82° |
| 2026-05-07 14:43 | -37.09254 | 174.35592 | 5706 ft | 268 kts | 82° |
| 2026-05-07 14:43 | -37.09100 | 174.37897 | 5364 ft | 265 kts | 82° |
| 2026-05-07 14:43 | -37.08947 | 174.40183 | 5018 ft | 262 kts | 82° |
| 2026-05-07 14:43 | -37.08796 | 174.42451 | 4665 ft | 261 kts | 81° |
| 2026-05-07 14:44 | -37.08695 | 174.43947 | 4436 ft | 260 kts | 82° |
| 2026-05-07 14:44 | -37.08545 | 174.46189 | 4095 ft | 258 kts | 81° |
| 2026-05-07 14:44 | -37.08348 | 174.49153 | 3762 ft | 250 kts | 81° |
| 2026-05-07 14:44 | -37.08255 | 174.50568 | 3706 ft | 241 kts | 81° |
| 2026-05-07 14:45 | -37.08032 | 174.53230 | 3677 ft | 222 kts | 71° |
| 2026-05-07 14:45 | -37.07771 | 174.54474 | 3687 ft | 224 kts | 68° |
| 2026-05-07 14:45 | -37.07309 | 174.56357 | 3425 ft | 227 kts | 66° |
| 2026-05-07 14:45 | -37.06803 | 174.58214 | 3126 ft | 224 kts | 65° |
| 2026-05-07 14:46 | -37.06288 | 174.60053 | 2835 ft | 223 kts | 65° |
| 2026-05-07 14:46 | -37.05797 | 174.61862 | 2546 ft | 214 kts | 65° |
| 2026-05-07 14:46 | -37.05341 | 174.63556 | 2254 ft | 192 kts | 64° |
| 2026-05-07 14:46 | -37.04945 | 174.65015 | 1999 ft | 168 kts | 64° |
| 2026-05-07 14:47 | -37.04584 | 174.66338 | 1778 ft | 156 kts | 64° |
| 2026-05-07 14:47 | -37.04227 | 174.67619 | 1561 ft | 156 kts | 65° |
| 2026-05-07 14:47 | -37.03872 | 174.68902 | 1393 ft | 156 kts | 64° |
| 2026-05-07 14:47 | -37.03517 | 174.70167 | 1160 ft | 153 kts | 66° |
| 2026-05-07 14:48 | -37.03174 | 174.71429 | 959 ft | 153 kts | 66° |
| 2026-05-07 14:48 | -37.02823 | 174.72699 | 792 ft | 155 kts | 68° |
| 2026-05-07 14:48 | -37.02473 | 174.73979 | 576 ft | 156 kts | 68° |
| 2026-05-07 14:48 | -37.02140 | 174.75260 | 344 ft | 153 kts | 67° |
| 2026-05-07 14:49 | -37.01789 | 174.76506 | 138 ft | 153 kts | 68° |
| 2026-05-07 14:49 | -37.01443 | 174.77737 | 34 ft | 137 kts | 72° |
| 2026-05-07 14:49 | -37.01184 | 174.78700 | 33 ft | 98 kts | 70° |
| 2026-05-07 14:49 | -37.01012 | 174.79313 | 33 ft | 39 kts | 71° |
| 2026-05-07 14:50 | -37.00963 | 174.79466 | 31 ft | 4 kts | 63° |
| 2026-05-07 14:50 | -37.00949 | 174.79502 | 33 ft | 5 kts | 63° |
| 2026-05-07 14:50 | -37.00927 | 174.79550 | 33 ft | 7 kts | 57° |
| 2026-05-07 14:50 | -37.00882 | 174.79614 | 33 ft | 15 kts | 44° |
| 2026-05-07 14:51 | -37.00781 | 174.79707 | 32 ft | 18 kts | 15° |
| 2026-05-07 14:51 | -37.00673 | 174.79671 | 33 ft | 16 kts | 308° |
| 2026-05-07 14:51 | -37.00656 | 174.79592 | 33 ft | 6 kts | 252° |